Portada
METAR-TAF:

METAR-TAF

Aeropuertos :

Aeropuerto de Adana Şakirpaşa

Adana, Turquía

latitud: 36-59N, longitud: 035-18E, altitud: 20 m

Observación

El informe se hizo hace 23 minutos, a las 00:20 UTC
Viento 5 kt del norte, variando entre norte-noroeste y norte-noreste
Temperatura 12°C
Humedad 44%
Presión 1018 hPa
Visibilidad 10 km o más
sin nubes por debajo de 1500 m y sin presencia de cumulonimbus.

METAR: LTAF 060020Z 36005KT 330V030 CAVOK 12/00 Q1018 NOSIG RMK RWY23 36006KT

Hora: 03:43 (00:43 UTC)


TAF: falta

Observaciones y pronósticos meteorológicos de más de 4000 aeropuertos (mensajes METAR y TAF).

Los puntos amarillos y rojos representan las estaciones disponibles.

Ponga el ratón en el punto deseado para ver el nombre de la estación.

Haga clic para ver las observaciones y los pronósticos meteorológicos.

Para cambiar el mapa : haga clic en los botones verdes con una cruz de color negro para hacer un zoom, en el botón verde con un guión para alejar o en las flechas verdes para mapas adyacentes.


METAR-TAF: